Date,TemperatureHighF,TemperatureAvgF,TemperatureLowF,DewpointHighF,DewpointAvgF,DewpointLowF,HumidityHigh,HumidityAvg,HumidityLow,PressureMaxIn,PressureMinIn,WindSpeedMaxMPH,WindSpeedAvgMPH,GustSpeedMaxMPH,PrecipitationSumIn
2013-11-1,51,42,30,35,30,24,81,64,44,30.30,29.96,2,0,4,0.00
2013-11-2,45,41,38,42,36,29,91,83,60,29.96,29.50,3,0,6,0.44
2013-11-3,45,36,26,33,26,21,83,68,39,30.11,29.79,2,0,11,0.00
2013-11-4,45,31,23,24,21,16,84,68,31,30.25,30.11,3,0,6,0.00
2013-11-5,37,33,28,30,27,23,86,80,70,30.30,30.17,4,0,6,0.03
2013-11-6,39,34,28,30,28,24,87,79,66,30.44,30.31,3,1,6,0.01
2013-11-7,36,34,32,32,30,29,89,88,85,30.32,29.82,1,0,2,0.13
2013-11-8,37,33,28,34,30,24,90,88,87,30.26,29.96,1,0,3,0.00
2013-11-9,39,32,23,33,28,19,89,83,65,30.33,30.22,1,0,1,0.01
2013-11-10,38,36,33,35,32,30,89,87,84,30.36,30.21,0,0,1,0.15
2013-11-11,43,39,36,39,36,32,89,88,85,30.46,30.33,0,0,2,0.00
2013-11-12,44,41,39,40,38,36,90,88,85,30.39,30.27,0,0,1,0.00
2013-11-13,49,42,33,41,36,30,90,82,59,30.40,30.31,3,0,4,0.00
2013-11-14,51,36,28,37,30,24,89,81,48,30.30,29.97,2,0,5,0.00
2013-11-15,47,39,30,30,26,22,89,62,41,29.97,29.27,4,1,9,0.03
2013-11-16,47,36,29,32,26,19,88,68,38,29.68,29.25,2,0,6,0.00
2013-11-17,35,30,25,30,25,22,88,82,69,29.93,29.68,1,0,2,0.01
2013-11-18,37,30,22,33,27,18,89,87,83,29.97,29.61,0,0,1,0.10
2013-11-19,48,36,30,39,25,11,92,69,37,30.03,29.56,3,1,7,0.24
2013-11-20,32,24,14,11,7,-1,77,50,24,30.64,30.03,2,1,9,0.00
2013-11-21,31,18,10,13,9,4,79,68,37,30.85,30.64,3,0,5,0.00
2013-11-22,33,21,12,17,12,7,80,70,49,30.97,30.81,1,0,4,0.00
2013-11-23,35,22,12,22,14,6,80,72,49,30.81,30.46,2,0,3,0.00
2013-11-24,35,25,17,22,18,12,82,74,57,30.53,30.42,1,0,2,0.00
2013-11-25,39,29,22,26,21,17,84,74,53,30.57,30.49,1,0,2,0.00
2013-11-26,36,26,19,27,20,14,84,79,64,30.52,30.30,1,0,2,0.00
2013-11-27,38,26,18,28,21,13,85,80,63,30.37,30.23,2,0,3,0.00
2013-11-28,38,26,17,28,20,12,85,79,64,30.33,30.24,1,0,2,0.00
2013-11-29,34,28,24,26,23,20,87,82,74,30.40,30.31,1,0,3,0.00
2013-11-30,33,31,28,27,26,24,86,82,75,30.41,30.22,1,0,2,0.00